sensor_id;sensor_type;location;lat;lon;timestamp;P1;durP1;ratioP1;P2;durP2;ratioP2
45420;SDS011;55462;47.042;8.292;2023-09-19T00:01:06;1.65;;;1.55;;
45420;SDS011;55462;47.042;8.292;2023-09-19T00:03:37;5.32;;;2.08;;
45420;SDS011;55462;47.042;8.292;2023-09-19T00:06:03;1.70;;;1.60;;
45420;SDS011;55462;47.042;8.292;2023-09-19T00:08:29;1.90;;;1.80;;
45420;SDS011;55462;47.042;8.292;2023-09-19T00:10:55;2.45;;;2.08;;
45420;SDS011;55462;47.042;8.292;2023-09-19T00:13:30;1.90;;;1.80;;
45420;SDS011;55462;47.042;8.292;2023-09-19T00:15:56;2.22;;;2.00;;
45420;SDS011;55462;47.042;8.292;2023-09-19T00:18:24;2.53;;;2.08;;
45420;SDS011;55462;47.042;8.292;2023-09-19T00:20:53;3.58;;;2.05;;
45420;SDS011;55462;47.042;8.292;2023-09-19T00:23:22;2.75;;;2.05;;
45420;SDS011;55462;47.042;8.292;2023-09-19T00:25:47;2.00;;;1.90;;
45420;SDS011;55462;47.042;8.292;2023-09-19T00:28:13;3.28;;;2.00;;
45420;SDS011;55462;47.042;8.292;2023-09-19T00:30:39;3.25;;;2.05;;
45420;SDS011;55462;47.042;8.292;2023-09-19T00:33:07;2.20;;;2.10;;
45420;SDS011;55462;47.042;8.292;2023-09-19T00:35:33;1.85;;;1.75;;
45420;SDS011;55462;47.042;8.292;2023-09-19T00:37:58;1.85;;;1.75;;
45420;SDS011;55462;47.042;8.292;2023-09-19T00:40:24;3.67;;;1.80;;
45420;SDS011;55462;47.042;8.292;2023-09-19T00:42:49;1.90;;;1.70;;
45420;SDS011;55462;47.042;8.292;2023-09-19T00:45:15;3.25;;;1.70;;
45420;SDS011;55462;47.042;8.292;2023-09-19T00:47:43;1.83;;;1.73;;
45420;SDS011;55462;47.042;8.292;2023-09-19T00:50:10;2.22;;;1.98;;
45420;SDS011;55462;47.042;8.292;2023-09-19T00:52:39;2.70;;;1.55;;
45420;SDS011;55462;47.042;8.292;2023-09-19T00:55:05;1.80;;;1.70;;
45420;SDS011;55462;47.042;8.292;2023-09-19T00:57:32;1.65;;;1.55;;
45420;SDS011;55462;47.042;8.292;2023-09-19T00:59:58;1.85;;;1.45;;
45420;SDS011;55462;47.042;8.292;2023-09-19T01:02:24;1.80;;;1.70;;
45420;SDS011;55462;47.042;8.292;2023-09-19T01:04:52;1.20;;;1.20;;
45420;SDS011;55462;47.042;8.292;2023-09-19T01:07:18;1.70;;;1.60;;
45420;SDS011;55462;47.042;8.292;2023-09-19T01:09:44;1.95;;;1.67;;
45420;SDS011;55462;47.042;8.292;2023-09-19T01:12:09;1.85;;;1.75;;
45420;SDS011;55462;47.042;8.292;2023-09-19T01:17:20;1.88;;;1.55;;
45420;SDS011;55462;47.042;8.292;2023-09-19T01:28:28;1.45;;;1.20;;
45420;SDS011;55462;47.042;8.292;2023-09-19T01:30:39;1.40;;;1.40;;
45420;SDS011;55462;47.042;8.292;2023-09-19T01:33:08;1.70;;;1.60;;
45420;SDS011;55462;47.042;8.292;2023-09-19T01:35:37;1.55;;;1.45;;
45420;SDS011;55462;47.042;8.292;2023-09-19T01:38:04;2.05;;;1.50;;
45420;SDS011;55462;47.042;8.292;2023-09-19T01:40:30;1.50;;;1.40;;
45420;SDS011;55462;47.042;8.292;2023-09-19T01:42:59;1.50;;;1.40;;
45420;SDS011;55462;47.042;8.292;2023-09-19T01:48:35;1.42;;;1.42;;
45420;SDS011;55462;47.042;8.292;2023-09-19T01:51:07;2.78;;;1.60;;
45420;SDS011;55462;47.042;8.292;2023-09-19T01:53:43;1.45;;;1.40;;
45420;SDS011;55462;47.042;8.292;2023-09-19T01:56:12;1.50;;;1.40;;
45420;SDS011;55462;47.042;8.292;2023-09-19T01:58:51;1.40;;;1.40;;
45420;SDS011;55462;47.042;8.292;2023-09-19T02:01:20;1.40;;;1.30;;
45420;SDS011;55462;47.042;8.292;2023-09-19T02:03:47;2.83;;;1.45;;
45420;SDS011;55462;47.042;8.292;2023-09-19T02:06:14;1.58;;;1.48;;
45420;SDS011;55462;47.042;8.292;2023-09-19T02:08:40;1.95;;;1.55;;
45420;SDS011;55462;47.042;8.292;2023-09-19T02:11:06;3.83;;;1.63;;
45420;SDS011;55462;47.042;8.292;2023-09-19T02:13:31;2.38;;;1.80;;
45420;SDS011;55462;47.042;8.292;2023-09-19T02:15:56;3.25;;;1.60;;
45420;SDS011;55462;47.042;8.292;2023-09-19T02:18:22;2.30;;;1.60;;
45420;SDS011;55462;47.042;8.292;2023-09-19T02:20:47;1.50;;;1.50;;
45420;SDS011;55462;47.042;8.292;2023-09-19T02:23:12;1.38;;;1.38;;
45420;SDS011;55462;47.042;8.292;2023-09-19T02:25:38;1.50;;;1.40;;
45420;SDS011;55462;47.042;8.292;2023-09-19T02:28:05;1.60;;;1.50;;
45420;SDS011;55462;47.042;8.292;2023-09-19T02:30:30;1.45;;;1.35;;
45420;SDS011;55462;47.042;8.292;2023-09-19T02:32:56;1.13;;;1.13;;
45420;SDS011;55462;47.042;8.292;2023-09-19T02:35:22;2.28;;;1.58;;
45420;SDS011;55462;47.042;8.292;2023-09-19T02:37:47;1.50;;;1.40;;
45420;SDS011;55462;47.042;8.292;2023-09-19T02:40:13;2.72;;;1.52;;
45420;SDS011;55462;47.042;8.292;2023-09-19T02:42:48;1.58;;;1.30;;
45420;SDS011;55462;47.042;8.292;2023-09-19T02:45:17;1.50;;;1.40;;
45420;SDS011;55462;47.042;8.292;2023-09-19T02:47:46;2.58;;;1.40;;
45420;SDS011;55462;47.042;8.292;2023-09-19T02:50:13;1.60;;;1.50;;
45420;SDS011;55462;47.042;8.292;2023-09-19T02:52:44;3.85;;;1.45;;
45420;SDS011;55462;47.042;8.292;2023-09-19T02:55:13;1.40;;;1.30;;
45420;SDS011;55462;47.042;8.292;2023-09-19T02:57:45;1.20;;;1.20;;
45420;SDS011;55462;47.042;8.292;2023-09-19T03:00:11;1.30;;;1.30;;
45420;SDS011;55462;47.042;8.292;2023-09-19T03:02:37;1.60;;;1.50;;
45420;SDS011;55462;47.042;8.292;2023-09-19T03:05:04;2.47;;;1.40;;
45420;SDS011;55462;47.042;8.292;2023-09-19T03:07:30;3.22;;;1.38;;
45420;SDS011;55462;47.042;8.292;2023-09-19T03:09:56;1.65;;;1.50;;
45420;SDS011;55462;47.042;8.292;2023-09-19T03:12:21;2.70;;;1.60;;
45420;SDS011;55462;47.042;8.292;2023-09-19T03:14:46;5.25;;;1.27;;
45420;SDS011;55462;47.042;8.292;2023-09-19T03:17:12;1.00;;;1.00;;
45420;SDS011;55462;47.042;8.292;2023-09-19T03:19:39;2.35;;;1.10;;
45420;SDS011;55462;47.042;8.292;2023-09-19T03:22:05;1.58;;;1.30;;
45420;SDS011;55462;47.042;8.292;2023-09-19T03:24:30;1.20;;;1.20;;
45420;SDS011;55462;47.042;8.292;2023-09-19T03:26:56;1.10;;;1.00;;
45420;SDS011;55462;47.042;8.292;2023-09-19T03:29:22;1.60;;;1.50;;
45420;SDS011;55462;47.042;8.292;2023-09-19T03:31:47;1.60;;;1.50;;
45420;SDS011;55462;47.042;8.292;2023-09-19T03:34:13;1.35;;;1.25;;
45420;SDS011;55462;47.042;8.292;2023-09-19T03:36:38;2.90;;;1.33;;
45420;SDS011;55462;47.042;8.292;2023-09-19T03:39:05;4.10;;;1.50;;
45420;SDS011;55462;47.042;8.292;2023-09-19T03:41:31;1.55;;;1.35;;
45420;SDS011;55462;47.042;8.292;2023-09-19T03:43:58;1.60;;;1.50;;
45420;SDS011;55462;47.042;8.292;2023-09-19T03:46:23;2.20;;;1.40;;
45420;SDS011;55462;47.042;8.292;2023-09-19T03:48:49;1.52;;;1.42;;
45420;SDS011;55462;47.042;8.292;2023-09-19T03:51:15;3.70;;;1.63;;
45420;SDS011;55462;47.042;8.292;2023-09-19T03:53:40;1.67;;;1.40;;
45420;SDS011;55462;47.042;8.292;2023-09-19T03:56:05;1.50;;;1.30;;
45420;SDS011;55462;47.042;8.292;2023-09-19T03:58:31;1.90;;;1.30;;
45420;SDS011;55462;47.042;8.292;2023-09-19T04:00:56;1.50;;;1.40;;
45420;SDS011;55462;47.042;8.292;2023-09-19T04:03:23;1.30;;;1.30;;
45420;SDS011;55462;47.042;8.292;2023-09-19T04:05:49;1.23;;;1.23;;
45420;SDS011;55462;47.042;8.292;2023-09-19T04:08:14;1.73;;;1.60;;
45420;SDS011;55462;47.042;8.292;2023-09-19T04:10:43;1.17;;;1.17;;
45420;SDS011;55462;47.042;8.292;2023-09-19T04:13:09;1.45;;;1.33;;
45420;SDS011;55462;47.042;8.292;2023-09-19T04:15:34;1.50;;;1.40;;
45420;SDS011;55462;47.042;8.292;2023-09-19T04:17:59;1.98;;;1.25;;
45420;SDS011;55462;47.042;8.292;2023-09-19T04:20:25;3.50;;;1.45;;
45420;SDS011;55462;47.042;8.292;2023-09-19T04:22:50;1.35;;;1.25;;
45420;SDS011;55462;47.042;8.292;2023-09-19T04:25:16;2.63;;;1.27;;
45420;SDS011;55462;47.042;8.292;2023-09-19T04:27:41;1.45;;;1.38;;
45420;SDS011;55462;47.042;8.292;2023-09-19T04:30:07;1.77;;;1.52;;
45420;SDS011;55462;47.042;8.292;2023-09-19T04:32:36;1.42;;;1.33;;
45420;SDS011;55462;47.042;8.292;2023-09-19T04:35:05;5.13;;;1.33;;
45420;SDS011;55462;47.042;8.292;2023-09-19T04:37:35;2.50;;;1.58;;
45420;SDS011;55462;47.042;8.292;2023-09-19T04:40:02;2.15;;;1.17;;
45420;SDS011;55462;47.042;8.292;2023-09-19T04:42:30;1.60;;;1.08;;
45420;SDS011;55462;47.042;8.292;2023-09-19T04:44:56;2.00;;;1.10;;
45420;SDS011;55462;47.042;8.292;2023-09-19T04:47:21;1.38;;;1.30;;
45420;SDS011;55462;47.042;8.292;2023-09-19T04:49:47;2.10;;;1.50;;
45420;SDS011;55462;47.042;8.292;2023-09-19T04:52:12;1.42;;;1.33;;
45420;SDS011;55462;47.042;8.292;2023-09-19T04:54:40;1.30;;;1.20;;
45420;SDS011;55462;47.042;8.292;2023-09-19T04:57:06;1.40;;;1.30;;
45420;SDS011;55462;47.042;8.292;2023-09-19T04:59:31;3.13;;;1.63;;
45420;SDS011;55462;47.042;8.292;2023-09-19T05:01:57;1.60;;;1.50;;
45420;SDS011;55462;47.042;8.292;2023-09-19T05:04:22;4.15;;;1.60;;
45420;SDS011;55462;47.042;8.292;2023-09-19T05:06:47;2.03;;;1.92;;
45420;SDS011;55462;47.042;8.292;2023-09-19T05:09:13;1.77;;;1.50;;
45420;SDS011;55462;47.042;8.292;2023-09-19T05:11:38;1.50;;;1.40;;
45420;SDS011;55462;47.042;8.292;2023-09-19T05:14:03;1.70;;;1.58;;
45420;SDS011;55462;47.042;8.292;2023-09-19T05:16:29;3.42;;;1.80;;
45420;SDS011;55462;47.042;8.292;2023-09-19T05:18:56;3.17;;;1.75;;
45420;SDS011;55462;47.042;8.292;2023-09-19T05:21:24;3.75;;;1.60;;
45420;SDS011;55462;47.042;8.292;2023-09-19T05:23:51;1.65;;;1.55;;
45420;SDS011;55462;47.042;8.292;2023-09-19T05:26:17;2.95;;;1.63;;
45420;SDS011;55462;47.042;8.292;2023-09-19T05:28:42;2.15;;;1.73;;
45420;SDS011;55462;47.042;8.292;2023-09-19T05:31:08;1.40;;;1.40;;
45420;SDS011;55462;47.042;8.292;2023-09-19T05:33:33;1.60;;;1.60;;
45420;SDS011;55462;47.042;8.292;2023-09-19T05:35:58;1.75;;;1.65;;
45420;SDS011;55462;47.042;8.292;2023-09-19T05:38:24;3.35;;;1.80;;
45420;SDS011;55462;47.042;8.292;2023-09-19T05:40:51;2.15;;;1.80;;
45420;SDS011;55462;47.042;8.292;2023-09-19T05:43:16;2.22;;;1.42;;
45420;SDS011;55462;47.042;8.292;2023-09-19T05:45:43;1.40;;;1.30;;
45420;SDS011;55462;47.042;8.292;2023-09-19T05:48:11;1.40;;;1.40;;
45420;SDS011;55462;47.042;8.292;2023-09-19T05:50:38;2.33;;;1.65;;
45420;SDS011;55462;47.042;8.292;2023-09-19T05:53:04;3.47;;;1.95;;
45420;SDS011;55462;47.042;8.292;2023-09-19T05:55:30;2.25;;;2.10;;
45420;SDS011;55462;47.042;8.292;2023-09-19T05:57:56;3.85;;;3.38;;
45420;SDS011;55462;47.042;8.292;2023-09-19T06:00:21;2.20;;;2.00;;
45420;SDS011;55462;47.042;8.292;2023-09-19T06:02:51;4.53;;;1.83;;
45420;SDS011;55462;47.042;8.292;2023-09-19T06:05:18;1.90;;;1.80;;
45420;SDS011;55462;47.042;8.292;2023-09-19T06:07:43;2.35;;;1.63;;
45420;SDS011;55462;47.042;8.292;2023-09-19T06:10:09;1.60;;;1.50;;
45420;SDS011;55462;47.042;8.292;2023-09-19T06:12:53;1.90;;;1.67;;
45420;SDS011;55462;47.042;8.292;2023-09-19T06:15:20;1.40;;;1.40;;
45420;SDS011;55462;47.042;8.292;2023-09-19T06:17:48;1.60;;;1.50;;
45420;SDS011;55462;47.042;8.292;2023-09-19T06:20:14;2.22;;;1.80;;
45420;SDS011;55462;47.042;8.292;2023-09-19T06:22:45;1.83;;;1.70;;
45420;SDS011;55462;47.042;8.292;2023-09-19T06:25:11;2.58;;;1.60;;
45420;SDS011;55462;47.042;8.292;2023-09-19T06:27:41;1.85;;;1.42;;
45420;SDS011;55462;47.042;8.292;2023-09-19T06:30:08;1.45;;;1.20;;
45420;SDS011;55462;47.042;8.292;2023-09-19T06:32:34;2.53;;;1.48;;
45420;SDS011;55462;47.042;8.292;2023-09-19T06:34:59;2.40;;;1.77;;
45420;SDS011;55462;47.042;8.292;2023-09-19T06:37:27;1.90;;;1.50;;
45420;SDS011;55462;47.042;8.292;2023-09-19T06:39:53;2.67;;;1.60;;
45420;SDS011;55462;47.042;8.292;2023-09-19T06:42:18;3.08;;;1.50;;
45420;SDS011;55462;47.042;8.292;2023-09-19T06:44:44;4.10;;;1.73;;
45420;SDS011;55462;47.042;8.292;2023-09-19T06:47:09;1.63;;;1.50;;
45420;SDS011;55462;47.042;8.292;2023-09-19T06:49:35;1.63;;;1.52;;
45420;SDS011;55462;47.042;8.292;2023-09-19T06:52:01;3.90;;;1.70;;
45420;SDS011;55462;47.042;8.292;2023-09-19T06:54:28;2.20;;;1.98;;
45420;SDS011;55462;47.042;8.292;2023-09-19T06:56:56;2.35;;;2.17;;
45420;SDS011;55462;47.042;8.292;2023-09-19T06:59:23;2.30;;;2.10;;
45420;SDS011;55462;47.042;8.292;2023-09-19T07:01:49;2.80;;;1.95;;
45420;SDS011;55462;47.042;8.292;2023-09-19T07:04:15;1.83;;;1.73;;
45420;SDS011;55462;47.042;8.292;2023-09-19T07:06:41;1.83;;;1.70;;
45420;SDS011;55462;47.042;8.292;2023-09-19T07:09:07;2.15;;;1.95;;
45420;SDS011;55462;47.042;8.292;2023-09-19T07:11:33;2.63;;;2.13;;
45420;SDS011;55462;47.042;8.292;2023-09-19T07:13:59;4.55;;;2.15;;
45420;SDS011;55462;47.042;8.292;2023-09-19T07:16:24;2.47;;;1.90;;
45420;SDS011;55462;47.042;8.292;2023-09-19T07:18:54;3.13;;;2.08;;
45420;SDS011;55462;47.042;8.292;2023-09-19T07:21:21;3.88;;;2.20;;
45420;SDS011;55462;47.042;8.292;2023-09-19T07:23:47;2.58;;;1.90;;
45420;SDS011;55462;47.042;8.292;2023-09-19T07:26:12;2.42;;;2.03;;
45420;SDS011;55462;47.042;8.292;2023-09-19T07:28:38;2.00;;;1.80;;
45420;SDS011;55462;47.042;8.292;2023-09-19T07:31:03;2.25;;;1.80;;
45420;SDS011;55462;47.042;8.292;2023-09-19T07:33:30;1.95;;;1.85;;
45420;SDS011;55462;47.042;8.292;2023-09-19T07:35:55;3.05;;;1.85;;
45420;SDS011;55462;47.042;8.292;2023-09-19T07:38:20;2.47;;;2.28;;
45420;SDS011;55462;47.042;8.292;2023-09-19T07:40:47;4.07;;;2.28;;
45420;SDS011;55462;47.042;8.292;2023-09-19T07:43:13;5.55;;;2.30;;
45420;SDS011;55462;47.042;8.292;2023-09-19T07:45:38;3.35;;;2.20;;
45420;SDS011;55462;47.042;8.292;2023-09-19T07:48:03;2.35;;;2.15;;
45420;SDS011;55462;47.042;8.292;2023-09-19T07:50:32;2.47;;;2.28;;
45420;SDS011;55462;47.042;8.292;2023-09-19T07:52:59;3.72;;;2.13;;
45420;SDS011;55462;47.042;8.292;2023-09-19T07:55:24;4.05;;;2.05;;
45420;SDS011;55462;47.042;8.292;2023-09-19T07:57:51;2.40;;;1.90;;
45420;SDS011;55462;47.042;8.292;2023-09-19T08:00:17;2.88;;;1.80;;
45420;SDS011;55462;47.042;8.292;2023-09-19T08:02:43;2.83;;;1.77;;
45420;SDS011;55462;47.042;8.292;2023-09-19T08:05:09;2.35;;;1.80;;
45420;SDS011;55462;47.042;8.292;2023-09-19T08:07:36;2.03;;;1.73;;
45420;SDS011;55462;47.042;8.292;2023-09-19T08:10:03;3.17;;;1.83;;
45420;SDS011;55462;47.042;8.292;2023-09-19T08:12:42;2.30;;;2.10;;
45420;SDS011;55462;47.042;8.292;2023-09-19T08:15:21;1.88;;;1.70;;
45420;SDS011;55462;47.042;8.292;2023-09-19T08:17:46;2.63;;;1.75;;
45420;SDS011;55462;47.042;8.292;2023-09-19T08:20:12;2.03;;;1.90;;
45420;SDS011;55462;47.042;8.292;2023-09-19T08:25:15;2.58;;;1.70;;
45420;SDS011;55462;47.042;8.292;2023-09-19T08:27:44;1.90;;;1.80;;
45420;SDS011;55462;47.042;8.292;2023-09-19T08:30:14;2.97;;;1.65;;
45420;SDS011;55462;47.042;8.292;2023-09-19T08:32:49;1.80;;;1.70;;
45420;SDS011;55462;47.042;8.292;2023-09-19T08:35:35;2.20;;;1.88;;
45420;SDS011;55462;47.042;8.292;2023-09-19T08:38:01;1.45;;;1.35;;
45420;SDS011;55462;47.042;8.292;2023-09-19T08:40:29;3.25;;;2.03;;
45420;SDS011;55462;47.042;8.292;2023-09-19T08:42:58;2.10;;;1.63;;
45420;SDS011;55462;47.042;8.292;2023-09-19T08:45:24;1.85;;;1.75;;
45420;SDS011;55462;47.042;8.292;2023-09-19T08:50:43;3.25;;;2.17;;
45420;SDS011;55462;47.042;8.292;2023-09-19T08:53:14;2.65;;;2.20;;
45420;SDS011;55462;47.042;8.292;2023-09-19T08:55:48;2.35;;;1.90;;
45420;SDS011;55462;47.042;8.292;2023-09-19T08:58:16;2.78;;;1.80;;
45420;SDS011;55462;47.042;8.292;2023-09-19T09:00:48;2.33;;;2.08;;
45420;SDS011;55462;47.042;8.292;2023-09-19T09:03:14;3.42;;;1.83;;
45420;SDS011;55462;47.042;8.292;2023-09-19T09:05:41;2.75;;;1.67;;
45420;SDS011;55462;47.042;8.292;2023-09-19T09:08:06;1.80;;;1.70;;
45420;SDS011;55462;47.042;8.292;2023-09-19T09:10:32;1.67;;;1.58;;
45420;SDS011;55462;47.042;8.292;2023-09-19T09:12:57;2.00;;;1.90;;
45420;SDS011;55462;47.042;8.292;2023-09-19T09:15:23;2.95;;;1.60;;
45420;SDS011;55462;47.042;8.292;2023-09-19T09:17:50;2.80;;;1.77;;
45420;SDS011;55462;47.042;8.292;2023-09-19T09:20:17;3.50;;;1.73;;
45420;SDS011;55462;47.042;8.292;2023-09-19T09:22:53;1.83;;;1.55;;
45420;SDS011;55462;47.042;8.292;2023-09-19T09:25:19;1.77;;;1.65;;
45420;SDS011;55462;47.042;8.292;2023-09-19T09:27:58;1.80;;;1.70;;
45420;SDS011;55462;47.042;8.292;2023-09-19T09:30:32;3.80;;;1.90;;
45420;SDS011;55462;47.042;8.292;2023-09-19T09:33:11;1.63;;;1.52;;
45420;SDS011;55462;47.042;8.292;2023-09-19T09:35:59;1.80;;;1.70;;
45420;SDS011;55462;47.042;8.292;2023-09-19T09:38:49;2.50;;;2.30;;
45420;SDS011;55462;47.042;8.292;2023-09-19T09:41:13;4.57;;;1.80;;
45420;SDS011;55462;47.042;8.292;2023-09-19T09:43:52;1.95;;;1.80;;
45420;SDS011;55462;47.042;8.292;2023-09-19T09:46:18;3.58;;;1.80;;
45420;SDS011;55462;47.042;8.292;2023-09-19T09:51:38;1.95;;;1.85;;
45420;SDS011;55462;47.042;8.292;2023-09-19T09:54:15;2.72;;;2.42;;
45420;SDS011;55462;47.042;8.292;2023-09-19T09:59:50;2.33;;;2.20;;
45420;SDS011;55462;47.042;8.292;2023-09-19T10:02:21;2.25;;;2.05;;
45420;SDS011;55462;47.042;8.292;2023-09-19T10:04:54;1.90;;;1.80;;
45420;SDS011;55462;47.042;8.292;2023-09-19T10:07:39;2.90;;;1.98;;
45420;SDS011;55462;47.042;8.292;2023-09-19T10:10:07;2.17;;;1.70;;
45420;SDS011;55462;47.042;8.292;2023-09-19T10:12:46;1.92;;;1.83;;
45420;SDS011;55462;47.042;8.292;2023-09-19T10:15:13;1.90;;;1.80;;
45420;SDS011;55462;47.042;8.292;2023-09-19T10:17:42;2.47;;;2.10;;
45420;SDS011;55462;47.042;8.292;2023-09-19T10:20:09;1.60;;;1.50;;
45420;SDS011;55462;47.042;8.292;2023-09-19T10:22:47;2.33;;;1.80;;
45420;SDS011;55462;47.042;8.292;2023-09-19T10:25:24;1.85;;;1.60;;
45420;SDS011;55462;47.042;8.292;2023-09-19T10:27:50;2.47;;;1.40;;
45420;SDS011;55462;47.042;8.292;2023-09-19T10:30:18;1.63;;;1.52;;
45420;SDS011;55462;47.042;8.292;2023-09-19T10:32:45;1.73;;;1.63;;
45420;SDS011;55462;47.042;8.292;2023-09-19T10:35:11;1.80;;;1.55;;
45420;SDS011;55462;47.042;8.292;2023-09-19T10:37:38;2.92;;;1.70;;
45420;SDS011;55462;47.042;8.292;2023-09-19T10:40:04;2.20;;;1.70;;
45420;SDS011;55462;47.042;8.292;2023-09-19T10:42:33;1.77;;;1.60;;
45420;SDS011;55462;47.042;8.292;2023-09-19T10:45:03;1.73;;;1.63;;
45420;SDS011;55462;47.042;8.292;2023-09-19T10:47:32;1.92;;;1.45;;
45420;SDS011;55462;47.042;8.292;2023-09-19T10:49:57;1.35;;;1.30;;
45420;SDS011;55462;47.042;8.292;2023-09-19T10:52:23;1.48;;;1.38;;
45420;SDS011;55462;47.042;8.292;2023-09-19T10:54:51;2.00;;;1.40;;
45420;SDS011;55462;47.042;8.292;2023-09-19T10:57:20;1.50;;;1.40;;
45420;SDS011;55462;47.042;8.292;2023-09-19T11:00:04;1.50;;;1.40;;
45420;SDS011;55462;47.042;8.292;2023-09-19T11:05:42;5.25;;;1.40;;
45420;SDS011;55462;47.042;8.292;2023-09-19T11:08:08;1.55;;;1.17;;
45420;SDS011;55462;47.042;8.292;2023-09-19T11:10:49;1.35;;;1.10;;
45420;SDS011;55462;47.042;8.292;2023-09-19T11:13:26;1.60;;;1.30;;
45420;SDS011;55462;47.042;8.292;2023-09-19T11:26:50;1.30;;;0.93;;
45420;SDS011;55462;47.042;8.292;2023-09-19T11:31:52;2.72;;;1.25;;
45420;SDS011;55462;47.042;8.292;2023-09-19T11:37:01;1.60;;;1.50;;
45420;SDS011;55462;47.042;8.292;2023-09-19T11:39:29;2.42;;;1.55;;
45420;SDS011;55462;47.042;8.292;2023-09-19T11:41:55;3.22;;;1.33;;
45420;SDS011;55462;47.042;8.292;2023-09-19T11:44:31;3.33;;;1.40;;
45420;SDS011;55462;47.042;8.292;2023-09-19T11:46:58;1.65;;;1.23;;
45420;SDS011;55462;47.042;8.292;2023-09-19T11:49:31;1.45;;;1.35;;
45420;SDS011;55462;47.042;8.292;2023-09-19T11:51:57;1.17;;;1.17;;
45420;SDS011;55462;47.042;8.292;2023-09-19T11:54:29;1.55;;;1.45;;
45420;SDS011;55462;47.042;8.292;2023-09-19T11:56:56;2.30;;;1.67;;
45420;SDS011;55462;47.042;8.292;2023-09-19T11:59:23;5.50;;;1.63;;
45420;SDS011;55462;47.042;8.292;2023-09-19T12:01:53;1.50;;;1.40;;
45420;SDS011;55462;47.042;8.292;2023-09-19T12:04:38;1.80;;;1.65;;
45420;SDS011;55462;47.042;8.292;2023-09-19T12:07:08;2.42;;;1.42;;
45420;SDS011;55462;47.042;8.292;2023-09-19T12:09:40;1.27;;;1.27;;
45420;SDS011;55462;47.042;8.292;2023-09-19T12:12:22;2.30;;;1.33;;
45420;SDS011;55462;47.042;8.292;2023-09-19T12:14:49;4.10;;;1.50;;
45420;SDS011;55462;47.042;8.292;2023-09-19T12:17:15;3.00;;;1.45;;
45420;SDS011;55462;47.042;8.292;2023-09-19T12:19:49;1.83;;;1.20;;
45420;SDS011;55462;47.042;8.292;2023-09-19T12:22:16;1.30;;;1.20;;
45420;SDS011;55462;47.042;8.292;2023-09-19T12:24:43;1.38;;;1.27;;
45420;SDS011;55462;47.042;8.292;2023-09-19T12:27:09;1.25;;;1.02;;
45420;SDS011;55462;47.042;8.292;2023-09-19T12:29:43;1.50;;;1.40;;
45420;SDS011;55462;47.042;8.292;2023-09-19T12:32:09;1.50;;;1.23;;
45420;SDS011;55462;47.042;8.292;2023-09-19T12:34:34;3.05;;;1.40;;
45420;SDS011;55462;47.042;8.292;2023-09-19T12:39:52;1.35;;;1.25;;
45420;SDS011;55462;47.042;8.292;2023-09-19T12:42:23;2.50;;;1.63;;
45420;SDS011;55462;47.042;8.292;2023-09-19T12:44:53;5.03;;;1.83;;
45420;SDS011;55462;47.042;8.292;2023-09-19T12:47:22;1.20;;;1.10;;
45420;SDS011;55462;47.042;8.292;2023-09-19T12:50:22;1.08;;;1.08;;
45420;SDS011;55462;47.042;8.292;2023-09-19T12:52:50;1.48;;;1.20;;
45420;SDS011;55462;47.042;8.292;2023-09-19T12:55:22;1.30;;;1.30;;
45420;SDS011;55462;47.042;8.292;2023-09-19T12:58:22;1.10;;;1.10;;
45420;SDS011;55462;47.042;8.292;2023-09-19T13:00:44;1.75;;;1.17;;
45420;SDS011;55462;47.042;8.292;2023-09-19T13:03:16;1.88;;;1.33;;
45420;SDS011;55462;47.042;8.292;2023-09-19T13:05:58;9.63;;;2.20;;
45420;SDS011;55462;47.042;8.292;2023-09-19T13:08:29;1.58;;;1.33;;
45420;SDS011;55462;47.042;8.292;2023-09-19T13:11:16;2.13;;;1.33;;
45420;SDS011;55462;47.042;8.292;2023-09-19T13:13:49;1.50;;;1.20;;
45420;SDS011;55462;47.042;8.292;2023-09-19T13:16:52;1.45;;;1.30;;
45420;SDS011;55462;47.042;8.292;2023-09-19T13:25:14;2.30;;;1.30;;
45420;SDS011;55462;47.042;8.292;2023-09-19T13:27:46;1.20;;;1.20;;
45420;SDS011;55462;47.042;8.292;2023-09-19T13:30:17;3.25;;;1.33;;
45420;SDS011;55462;47.042;8.292;2023-09-19T13:32:43;1.67;;;1.48;;
45420;SDS011;55462;47.042;8.292;2023-09-19T13:35:08;1.73;;;1.33;;
45420;SDS011;55462;47.042;8.292;2023-09-19T13:37:34;1.35;;;1.20;;
45420;SDS011;55462;47.042;8.292;2023-09-19T13:40:03;1.80;;;1.30;;
45420;SDS011;55462;47.042;8.292;2023-09-19T13:42:30;3.20;;;1.50;;
45420;SDS011;55462;47.042;8.292;2023-09-19T13:44:56;2.25;;;1.30;;
45420;SDS011;55462;47.042;8.292;2023-09-19T13:47:22;2.70;;;1.50;;
45420;SDS011;55462;47.042;8.292;2023-09-19T13:49:49;1.77;;;1.35;;
45420;SDS011;55462;47.042;8.292;2023-09-19T13:52:17;1.30;;;1.20;;
45420;SDS011;55462;47.042;8.292;2023-09-19T13:54:43;2.00;;;1.70;;
45420;SDS011;55462;47.042;8.292;2023-09-19T13:57:08;1.92;;;1.60;;
45420;SDS011;55462;47.042;8.292;2023-09-19T13:59:34;2.22;;;1.40;;
45420;SDS011;55462;47.042;8.292;2023-09-19T14:02:00;2.17;;;1.40;;
45420;SDS011;55462;47.042;8.292;2023-09-19T14:04:25;2.00;;;1.60;;
45420;SDS011;55462;47.042;8.292;2023-09-19T14:06:53;1.30;;;1.20;;
45420;SDS011;55462;47.042;8.292;2023-09-19T14:09:19;1.65;;;1.20;;
45420;SDS011;55462;47.042;8.292;2023-09-19T14:11:44;1.60;;;1.50;;
45420;SDS011;55462;47.042;8.292;2023-09-19T14:14:12;2.17;;;1.40;;
45420;SDS011;55462;47.042;8.292;2023-09-19T14:16:37;1.20;;;1.10;;
45420;SDS011;55462;47.042;8.292;2023-09-19T14:19:04;2.97;;;1.52;;
45420;SDS011;55462;47.042;8.292;2023-09-19T14:21:30;1.48;;;1.38;;
45420;SDS011;55462;47.042;8.292;2023-09-19T14:23:55;14.50;;;3.00;;
45420;SDS011;55462;47.042;8.292;2023-09-19T14:26:21;1.30;;;1.20;;
45420;SDS011;55462;47.042;8.292;2023-09-19T14:28:48;1.70;;;1.40;;
45420;SDS011;55462;47.042;8.292;2023-09-19T14:31:13;1.45;;;1.30;;
45420;SDS011;55462;47.042;8.292;2023-09-19T14:33:39;1.50;;;1.27;;
45420;SDS011;55462;47.042;8.292;2023-09-19T14:36:06;3.78;;;1.40;;
45420;SDS011;55462;47.042;8.292;2023-09-19T14:38:33;2.70;;;1.50;;
45420;SDS011;55462;47.042;8.292;2023-09-19T14:40:59;1.45;;;1.35;;
45420;SDS011;55462;47.042;8.292;2023-09-19T14:43:28;2.33;;;1.45;;
45420;SDS011;55462;47.042;8.292;2023-09-19T14:45:55;6.25;;;1.20;;
45420;SDS011;55462;47.042;8.292;2023-09-19T14:48:29;3.95;;;1.55;;
45420;SDS011;55462;47.042;8.292;2023-09-19T14:50:55;4.00;;;1.45;;
45420;SDS011;55462;47.042;8.292;2023-09-19T14:53:20;1.60;;;1.50;;
45420;SDS011;55462;47.042;8.292;2023-09-19T14:55:46;1.50;;;1.40;;
45420;SDS011;55462;47.042;8.292;2023-09-19T14:58:16;1.52;;;1.40;;
45420;SDS011;55462;47.042;8.292;2023-09-19T15:00:42;2.22;;;1.40;;
45420;SDS011;55462;47.042;8.292;2023-09-19T15:03:10;2.08;;;1.42;;
45420;SDS011;55462;47.042;8.292;2023-09-19T15:05:36;2.63;;;1.65;;
45420;SDS011;55462;47.042;8.292;2023-09-19T15:08:01;2.42;;;1.60;;
45420;SDS011;55462;47.042;8.292;2023-09-19T15:10:27;2.47;;;1.67;;
45420;SDS011;55462;47.042;8.292;2023-09-19T15:12:53;5.25;;;1.40;;
45420;SDS011;55462;47.042;8.292;2023-09-19T15:15:18;2.05;;;1.52;;
45420;SDS011;55462;47.042;8.292;2023-09-19T15:17:44;1.75;;;1.52;;
45420;SDS011;55462;47.042;8.292;2023-09-19T15:20:12;1.52;;;1.42;;
45420;SDS011;55462;47.042;8.292;2023-09-19T15:22:39;2.15;;;1.55;;
45420;SDS011;55462;47.042;8.292;2023-09-19T15:25:04;1.40;;;1.20;;
45420;SDS011;55462;47.042;8.292;2023-09-19T15:27:30;2.22;;;1.48;;
45420;SDS011;55462;47.042;8.292;2023-09-19T15:29:57;1.60;;;1.38;;
45420;SDS011;55462;47.042;8.292;2023-09-19T15:32:23;2.00;;;1.50;;
45420;SDS011;55462;47.042;8.292;2023-09-19T15:34:49;1.25;;;1.15;;
45420;SDS011;55462;47.042;8.292;2023-09-19T15:37:14;1.92;;;1.42;;
45420;SDS011;55462;47.042;8.292;2023-09-19T15:39:39;1.30;;;1.20;;
45420;SDS011;55462;47.042;8.292;2023-09-19T15:42:06;1.55;;;1.40;;
45420;SDS011;55462;47.042;8.292;2023-09-19T15:44:31;1.65;;;1.55;;
45420;SDS011;55462;47.042;8.292;2023-09-19T15:46:57;1.30;;;1.20;;